createdAt,value
2022-08-18T00:01:24.415Z,75.80
2022-08-18T00:03:57.023Z,75.70
2022-08-18T00:06:30.038Z,75.50
2022-08-18T00:09:02.408Z,75.40
2022-08-18T00:11:40.547Z,75.80
2022-08-18T00:14:12.118Z,75.70
2022-08-18T00:16:48.544Z,76.30
2022-08-18T00:19:15.382Z,75.90
2022-08-18T00:21:42.227Z,76.10
2022-08-18T00:24:09.213Z,76.10
2022-08-18T00:26:37.118Z,76.10
2022-08-18T00:29:04.684Z,76.40
2022-08-18T00:31:32.385Z,76.40
2022-08-18T00:34:00.458Z,76.40
2022-08-18T00:36:27.963Z,76.30
2022-08-18T00:38:54.921Z,76.20
2022-08-18T00:41:27.575Z,76.30
2022-08-18T00:43:56.313Z,76.30
2022-08-18T00:46:33.195Z,76.80
2022-08-18T00:49:00.858Z,76.50
2022-08-18T00:51:34.813Z,76.50
2022-08-18T00:54:25.862Z,76.60
2022-08-18T00:56:57.242Z,76.70
2022-08-18T00:59:29.357Z,76.60
2022-08-18T01:02:02.853Z,76.50
2022-08-18T01:05:00.770Z,76.80
2022-08-18T01:07:57.639Z,76.80
2022-08-18T01:10:24.986Z,76.80
2022-08-18T01:12:56.883Z,76.50
2022-08-18T01:15:29.421Z,76.40
2022-08-18T01:18:22.849Z,76.50
2022-08-18T01:21:16.264Z,76.90
2022-08-18T01:23:43.560Z,76.80
2022-08-18T01:26:11.239Z,76.80
2022-08-18T01:28:42.164Z,76.70
2022-08-18T01:31:09.974Z,76.70
2022-08-18T01:33:39.953Z,76.90
2022-08-18T01:36:16.732Z,76.70
2022-08-18T01:38:48.014Z,77.10
2022-08-18T01:41:26.888Z,77.80
2022-08-18T01:43:56.607Z,77.20
2022-08-18T01:46:23.615Z,77.50
2022-08-18T01:48:51.343Z,77.30
2022-08-18T01:51:19.886Z,77.40
2022-08-18T01:53:48.526Z,77.50
2022-08-18T01:56:17.630Z,77.60
2022-08-18T01:58:47.719Z,77.50
2022-08-18T02:01:17.807Z,77.30
2022-08-18T02:03:49.179Z,77.30
2022-08-18T02:06:32.222Z,77.10
2022-08-18T02:09:00.477Z,77.20
2022-08-18T02:11:27.356Z,77.60
2022-08-18T02:13:54.197Z,78.60
2022-08-18T02:16:21.248Z,78.80
2022-08-18T02:18:52.996Z,78.80
2022-08-18T02:21:21.846Z,78.40
2022-08-18T02:23:52.903Z,77.70
2022-08-18T02:26:21.955Z,77.20
2022-08-18T02:28:49.602Z,77.50
2022-08-18T02:31:19.961Z,77.80
2022-08-18T02:33:52.324Z,77.90
2022-08-18T02:36:25.310Z,77.80
2022-08-18T02:38:59.280Z,78.00
2022-08-18T02:41:29.799Z,77.80
2022-08-18T02:43:58.266Z,77.40
2022-08-18T02:46:29.931Z,77.20
2022-08-18T02:48:59.321Z,77.80
2022-08-18T02:51:26.686Z,77.50
2022-08-18T02:53:54.251Z,77.80
2022-08-18T02:56:40.612Z,77.90
2022-08-18T02:59:11.127Z,78.40
2022-08-18T03:01:42.293Z,77.80
2022-08-18T03:04:11.081Z,77.10
2022-08-18T03:06:39.139Z,77.10
2022-08-18T03:09:08.068Z,77.50
2022-08-18T03:11:36.247Z,77.40
2022-08-18T03:14:05.532Z,77.10
2022-08-18T03:16:33.312Z,77.20
2022-08-18T03:19:01.980Z,77.00
2022-08-18T03:21:31.734Z,76.60
2022-08-18T03:24:02.747Z,76.40
2022-08-18T03:26:31.360Z,76.20
2022-08-18T03:29:00.019Z,76.20
2022-08-18T03:31:31.195Z,76.30
2022-08-18T03:33:59.719Z,76.50
2022-08-18T03:36:32.163Z,76.60
2022-08-18T03:39:02.743Z,75.80
2022-08-18T03:41:49.520Z,76.30
2022-08-18T03:44:17.368Z,76.50
2022-08-18T03:46:45.505Z,76.20
2022-08-18T03:49:13.396Z,76.20
2022-08-18T03:51:43.891Z,76.20
2022-08-18T03:54:13.667Z,76.20
2022-08-18T03:56:42.544Z,76.20
2022-08-18T03:59:28.511Z,76.10
2022-08-18T04:01:55.828Z,76.10
2022-08-18T04:04:26.499Z,75.90
2022-08-18T04:07:00.061Z,75.70
2022-08-18T04:09:30.023Z,75.50
2022-08-18T04:11:58.134Z,75.60
2022-08-18T04:14:30.082Z,75.20
2022-08-18T04:16:59.112Z,75.60
2022-08-18T04:19:27.812Z,75.40
2022-08-18T04:21:57.807Z,75.60
2022-08-18T04:24:26.639Z,75.30
2022-08-18T04:26:56.680Z,75.90
2022-08-18T04:29:24.493Z,76.20
2022-08-18T04:31:52.294Z,75.70
2022-08-18T04:34:22.606Z,75.20
2022-08-18T04:36:54.069Z,75.30
2022-08-18T04:39:22.652Z,75.60
2022-08-18T04:41:52.219Z,75.30
2022-08-18T04:44:19.761Z,75.10
2022-08-18T04:46:49.547Z,75.40
2022-08-18T04:49:18.464Z,75.60
2022-08-18T04:52:33.975Z,75.50
2022-08-18T04:54:55.452Z,75.60
2022-08-18T04:57:23.154Z,76.10
2022-08-18T04:59:52.299Z,76.60
2022-08-18T05:02:20.903Z,76.50
2022-08-18T05:04:48.148Z,77.00
2022-08-18T05:07:17.989Z,76.90
2022-08-18T05:09:45.212Z,76.20
2022-08-18T05:12:14.437Z,76.50
2022-08-18T05:14:44.576Z,76.40
2022-08-18T05:17:13.259Z,76.50
2022-08-18T05:19:42.236Z,76.60
2022-08-18T05:22:17.759Z,76.50
2022-08-18T05:24:45.711Z,76.10
2022-08-18T05:27:13.564Z,76.10
2022-08-18T05:29:41.579Z,75.80
2022-08-18T05:32:41.228Z,76.10
2022-08-18T05:35:12.306Z,75.50
2022-08-18T05:38:08.973Z,75.40
2022-08-18T05:40:36.923Z,75.40
2022-08-18T05:43:07.091Z,76.80
2022-08-18T05:45:35.224Z,78.00
2022-08-18T05:48:02.307Z,80.10
2022-08-18T05:50:32.514Z,80.50
2022-08-18T05:53:13.391Z,80.40
2022-08-18T05:56:38.311Z,79.70
2022-08-18T05:59:05.509Z,79.40
2022-08-18T06:01:42.174Z,78.80
2022-08-18T06:04:22.304Z,79.10
2022-08-18T06:06:50.496Z,79.10
2022-08-18T06:09:23.892Z,80.10
2022-08-18T06:12:05.101Z,82.90
2022-08-18T06:14:31.929Z,86.10
2022-08-18T06:17:08.401Z,89.50
2022-08-18T06:19:53.451Z,91.50
2022-08-18T06:22:20.146Z,92.60
2022-08-18T06:25:17.902Z,94.30
2022-08-18T06:27:59.579Z,93.80
2022-08-18T06:30:42.039Z,95.00
2022-08-18T06:33:11.984Z,94.60
2022-08-18T06:35:46.767Z,95.80
2022-08-18T06:38:36.812Z,96.20
2022-08-18T06:41:41.017Z,96.30
2022-08-18T06:44:03.505Z,95.90
2022-08-18T06:46:48.991Z,95.20
2022-08-18T06:49:48.364Z,95.30
2022-08-18T06:52:31.005Z,95.50
2022-08-18T06:55:01.037Z,96.00
2022-08-18T06:57:38.357Z,95.50
2022-08-18T07:00:31.440Z,95.20
2022-08-18T07:03:12.984Z,95.00
2022-08-18T07:06:24.750Z,96.10
2022-08-18T07:08:54.107Z,96.10
2022-08-18T07:11:28.028Z,96.10
2022-08-18T07:14:14.884Z,96.20
2022-08-18T07:16:59.635Z,95.90
2022-08-18T07:19:31.352Z,96.00
2022-08-18T07:22:13.828Z,95.00
2022-08-18T07:24:44.691Z,94.80
2022-08-18T07:27:12.720Z,94.00
2022-08-18T07:30:04.038Z,93.90
2022-08-18T07:32:40.477Z,93.80
2022-08-18T07:35:11.491Z,94.30
2022-08-18T07:38:38.526Z,94.30
2022-08-18T07:40:58.334Z,95.20
2022-08-18T07:43:36.020Z,95.60
2022-08-18T07:46:13.415Z,96.10
2022-08-18T07:48:40.506Z,96.50
2022-08-18T07:51:37.482Z,96.00
2022-08-18T07:54:48.923Z,96.10
2022-08-18T07:57:35.296Z,96.40
2022-08-18T08:01:00.303Z,96.60
2022-08-18T08:03:34.276Z,95.70
2022-08-18T08:06:05.401Z,95.60
2022-08-18T08:09:08.157Z,95.30
2022-08-18T08:11:53.458Z,93.40
2022-08-18T08:14:37.003Z,92.80
2022-08-18T08:17:23.526Z,92.90
2022-08-18T08:20:16.044Z,91.90
2022-08-18T08:23:06.244Z,90.70
2022-08-18T08:26:04.273Z,86.00
2022-08-18T08:28:46.199Z,82.50
2022-08-18T08:31:48.158Z,78.50
2022-08-18T08:34:22.604Z,75.60
2022-08-18T08:36:50.135Z,75.80
2022-08-18T08:39:19.911Z,73.30
2022-08-18T08:42:29.513Z,71.90
2022-08-18T08:45:00.935Z,72.80
2022-08-18T08:48:08.469Z,71.80
2022-08-18T08:50:59.194Z,74.50
2022-08-18T08:53:38.303Z,74.30
2022-08-18T08:56:13.202Z,73.40
2022-08-18T08:58:43.502Z,75.30
2022-08-18T09:01:39.770Z,75.40
2022-08-18T09:04:25.028Z,75.70
2022-08-18T09:07:06.711Z,74.40
2022-08-18T09:09:46.295Z,75.30
2022-08-18T09:12:37.135Z,74.70
2022-08-18T09:15:13.965Z,74.50
2022-08-18T09:18:07.869Z,74.10
2022-08-18T09:20:49.245Z,73.30
2022-08-18T09:23:31.638Z,71.60
2022-08-18T09:26:19.671Z,68.10
2022-08-18T09:28:56.461Z,68.30
2022-08-18T09:31:24.779Z,63.50
2022-08-18T09:34:10.921Z,62.40
2022-08-18T09:36:50.209Z,61.20
2022-08-18T09:42:48.592Z,57.90
2022-08-18T09:45:34.333Z,59.60
2022-08-18T09:48:28.314Z,56.30
2022-08-18T09:50:55.538Z,55.50
2022-08-18T09:54:07.914Z,57.70
2022-08-18T09:56:54.134Z,55.80
2022-08-18T09:59:35.203Z,55.30
2022-08-18T10:05:14.272Z,54.70
2022-08-18T10:07:58.210Z,51.60
2022-08-18T10:11:00.447Z,50.80
2022-08-18T10:13:49.626Z,48.80
2022-08-18T10:17:04.976Z,47.70
2022-08-18T10:19:59.161Z,45.60
2022-08-18T10:22:41.827Z,43.50
2022-08-18T10:27:58.770Z,44.90
2022-08-18T10:30:52.693Z,43.40
2022-08-18T10:33:58.771Z,40.90
2022-08-18T10:36:44.791Z,39.50
2022-08-18T10:39:22.298Z,39.80
2022-08-18T10:41:54.280Z,39.40
2022-08-18T10:44:29.161Z,39.70
2022-08-18T10:46:58.719Z,39.50
2022-08-18T10:49:28.961Z,39.00
2022-08-18T10:52:14.004Z,39.70
2022-08-18T10:54:55.359Z,39.90
2022-08-18T10:57:32.400Z,40.40
2022-08-18T11:00:13.738Z,40.90
2022-08-18T11:02:42.303Z,39.10
2022-08-18T11:05:12.733Z,39.90
2022-08-18T11:11:06.647Z,38.90
2022-08-18T11:13:58.512Z,37.80
2022-08-18T11:17:10.743Z,40.90
2022-08-18T11:19:46.871Z,41.00
2022-08-18T11:22:44.755Z,40.80
2022-08-18T11:25:25.774Z,40.30
2022-08-18T11:27:56.401Z,38.80
2022-08-18T11:30:31.432Z,39.70
2022-08-18T11:33:02.668Z,39.10
2022-08-18T11:36:02.369Z,39.70
2022-08-18T11:38:31.746Z,37.60
2022-08-18T11:41:24.643Z,38.00
2022-08-18T11:44:21.730Z,36.40
2022-08-18T11:46:52.085Z,37.70
2022-08-18T11:49:30.168Z,36.10
2022-08-18T11:55:14.452Z,36.10
2022-08-18T12:00:48.729Z,34.30
2022-08-18T12:03:42.489Z,35.10
2022-08-18T12:06:22.032Z,34.90
2022-08-18T12:09:07.621Z,36.10
2022-08-18T12:11:48.719Z,36.80
2022-08-18T12:14:30.555Z,37.00
2022-08-18T12:17:01.834Z,36.10
2022-08-18T12:19:30.999Z,37.40
2022-08-18T12:22:00.439Z,37.00
2022-08-18T12:24:36.457Z,35.60
2022-08-18T12:27:20.632Z,35.20
2022-08-18T12:29:50.706Z,35.90
2022-08-18T12:32:49.738Z,34.60
2022-08-18T12:35:10.157Z,35.10
2022-08-18T12:40:26.554Z,35.60
2022-08-18T12:42:55.811Z,35.70
2022-08-18T12:45:23.443Z,35.30
2022-08-18T12:47:52.730Z,36.30
2022-08-18T12:50:19.998Z,37.40
2022-08-18T12:52:58.207Z,38.80
2022-08-18T12:55:25.983Z,39.20
2022-08-18T12:57:53.911Z,39.50
2022-08-18T13:00:27.940Z,39.90
2022-08-18T13:02:57.408Z,40.10
2022-08-18T13:05:27.603Z,40.80
2022-08-18T13:08:00.837Z,41.40
2022-08-18T13:10:44.829Z,41.80
2022-08-18T13:13:15.233Z,42.80
2022-08-18T13:15:55.374Z,44.00
2022-08-18T13:18:28.870Z,45.30
2022-08-18T13:20:57.538Z,45.10
2022-08-18T13:23:27.430Z,45.80
2022-08-18T13:25:59.360Z,46.50
2022-08-18T13:28:35.965Z,46.90
2022-08-18T13:31:17.104Z,47.20
2022-08-18T13:33:59.545Z,47.10
2022-08-18T13:36:46.142Z,47.40
2022-08-18T13:39:17.495Z,47.30
2022-08-18T13:41:47.597Z,47.60
2022-08-18T13:44:18.989Z,47.40
2022-08-18T13:46:48.201Z,47.60
2022-08-18T13:49:18.546Z,48.50
2022-08-18T13:51:58.046Z,48.10
2022-08-18T13:54:35.333Z,47.60
2022-08-18T13:57:03.551Z,48.10
2022-08-18T13:59:33.226Z,48.30
2022-08-18T14:02:05.889Z,49.00
2022-08-18T14:04:36.226Z,48.60
2022-08-18T14:07:09.208Z,49.50
2022-08-18T14:09:38.218Z,49.40
2022-08-18T14:12:15.699Z,50.10
2022-08-18T14:14:49.869Z,50.50
2022-08-18T14:17:20.050Z,51.50
2022-08-18T14:20:10.333Z,52.10
2022-08-18T14:23:00.503Z,51.50
2022-08-18T14:25:46.376Z,52.10
2022-08-18T14:28:13.949Z,52.00
2022-08-18T14:30:50.707Z,52.60
2022-08-18T14:33:50.986Z,52.50
2022-08-18T14:36:12.173Z,52.80
2022-08-18T14:38:40.401Z,53.60
2022-08-18T14:41:12.024Z,53.90
2022-08-18T14:44:10.946Z,53.80
2022-08-18T14:46:30.468Z,53.50
2022-08-18T14:48:59.843Z,54.20
2022-08-18T14:51:33.574Z,53.90
2022-08-18T14:54:01.368Z,54.00
2022-08-18T14:56:29.915Z,53.80
2022-08-18T14:59:07.526Z,53.20
2022-08-18T15:01:36.545Z,53.00
2022-08-18T15:04:19.442Z,53.90
2022-08-18T15:06:56.069Z,53.40
2022-08-18T15:09:24.082Z,53.90
2022-08-18T15:11:55.827Z,53.70
2022-08-18T15:14:33.236Z,54.00
2022-08-18T15:17:11.584Z,53.70
2022-08-18T15:20:00.065Z,54.50
2022-08-18T15:22:46.161Z,54.60
2022-08-18T15:25:34.168Z,55.00
2022-08-18T15:28:01.275Z,55.30
2022-08-18T15:30:28.745Z,55.90
2022-08-18T15:32:55.752Z,55.70
2022-08-18T15:35:22.690Z,56.00
2022-08-18T15:37:51.453Z,56.40
2022-08-18T15:40:31.044Z,56.80
2022-08-18T15:43:09.897Z,57.40
2022-08-18T15:45:43.089Z,57.40
2022-08-18T15:48:20.549Z,57.80
2022-08-18T15:50:50.951Z,57.90
2022-08-18T15:53:29.816Z,58.10
2022-08-18T15:55:57.698Z,58.50
2022-08-18T15:58:26.850Z,58.20
2022-08-18T16:00:58.898Z,58.40
2022-08-18T16:03:26.092Z,59.10
2022-08-18T16:05:55.075Z,58.30
2022-08-18T16:08:23.825Z,58.20
2022-08-18T16:10:51.626Z,59.00
2022-08-18T16:13:19.189Z,58.90
2022-08-18T16:15:48.170Z,59.00
2022-08-18T16:18:17.151Z,59.40
2022-08-18T16:20:44.935Z,59.20
2022-08-18T16:23:12.852Z,59.70
2022-08-18T16:25:41.490Z,60.00
2022-08-18T16:28:09.293Z,60.50
2022-08-18T16:30:36.151Z,60.30
2022-08-18T16:33:05.388Z,60.30
2022-08-18T16:35:33.569Z,60.70
2022-08-18T16:38:06.745Z,60.90
2022-08-18T16:40:33.682Z,60.90
2022-08-18T16:43:00.791Z,60.80
2022-08-18T16:45:29.086Z,60.80
2022-08-18T16:47:55.954Z,61.40
2022-08-18T16:50:24.960Z,61.40
2022-08-18T16:52:52.569Z,61.80
2022-08-18T16:55:19.951Z,61.30
2022-08-18T16:58:05.246Z,61.40
2022-08-18T17:00:54.857Z,61.50
2022-08-18T17:03:42.309Z,61.60
2022-08-18T17:06:12.366Z,61.90
2022-08-18T17:08:40.707Z,61.70
2022-08-18T17:11:13.892Z,61.90
2022-08-18T17:13:41.758Z,61.70
2022-08-18T17:16:10.166Z,61.90
2022-08-18T17:18:37.938Z,61.80
2022-08-18T17:21:12.643Z,61.80
2022-08-18T17:23:40.281Z,62.10
2022-08-18T17:26:12.832Z,62.00
2022-08-18T17:28:52.484Z,61.90
2022-08-18T17:31:24.557Z,62.00
2022-08-18T17:33:55.291Z,62.30
2022-08-18T17:36:39.231Z,62.50
2022-08-18T17:39:12.636Z,62.50
2022-08-18T17:42:02.260Z,62.70
2022-08-18T17:44:31.468Z,63.00
2022-08-18T17:47:02.391Z,63.30
2022-08-18T17:50:27.419Z,63.10
2022-08-18T17:52:52.677Z,63.60
2022-08-18T17:55:34.476Z,64.70
2022-08-18T17:58:06.796Z,65.60
2022-08-18T18:00:33.734Z,66.00
2022-08-18T18:03:01.636Z,65.90
2022-08-18T18:05:38.407Z,66.20
2022-08-18T18:08:05.938Z,66.40
2022-08-18T18:11:03.919Z,66.60
2022-08-18T18:13:34.716Z,67.40
2022-08-18T18:16:23.374Z,66.90
2022-08-18T18:19:03.257Z,68.00
2022-08-18T18:22:00.090Z,67.80
2022-08-18T18:24:29.496Z,68.20
2022-08-18T18:26:56.288Z,68.40
2022-08-18T18:29:37.680Z,68.40
2022-08-18T18:32:06.790Z,68.60
2022-08-18T18:34:44.004Z,68.70
2022-08-18T18:37:33.088Z,69.00
2022-08-18T18:40:06.760Z,69.40
2022-08-18T18:42:36.524Z,69.20
2022-08-18T18:45:09.569Z,69.40
2022-08-18T18:47:50.806Z,69.60
2022-08-18T18:50:55.886Z,69.80
2022-08-18T18:53:42.319Z,70.10
2022-08-18T18:56:17.646Z,70.90
2022-08-18T18:58:53.447Z,70.80
2022-08-18T19:01:31.612Z,71.10
2022-08-18T19:04:41.040Z,71.00
2022-08-18T19:07:23.840Z,71.70
2022-08-18T19:10:12.422Z,71.20
2022-08-18T19:12:55.452Z,72.20
2022-08-18T19:15:25.749Z,72.20
2022-08-18T19:18:01.869Z,71.60
2022-08-18T19:20:40.349Z,71.90
2022-08-18T19:23:33.976Z,72.20
2022-08-18T19:26:11.408Z,72.20
2022-08-18T19:29:12.451Z,72.20
2022-08-18T19:31:38.111Z,72.30
2022-08-18T19:34:18.311Z,72.20
2022-08-18T19:36:52.926Z,72.30
2022-08-18T19:39:28.820Z,72.30
2022-08-18T19:42:09.331Z,73.10
2022-08-18T19:45:16.353Z,72.40
2022-08-18T19:48:07.352Z,72.80
2022-08-18T19:50:50.955Z,72.80
2022-08-18T19:53:40.150Z,72.80
2022-08-18T19:56:32.731Z,72.80
2022-08-18T19:59:15.754Z,73.20
2022-08-18T20:01:56.521Z,73.30
2022-08-18T20:04:51.552Z,73.40
2022-08-18T20:07:28.628Z,73.20
2022-08-18T20:10:10.117Z,73.00
2022-08-18T20:13:13.360Z,73.00
2022-08-18T20:16:43.326Z,73.00
2022-08-18T20:19:42.794Z,73.00
2022-08-18T20:22:31.378Z,72.70
2022-08-18T20:25:23.514Z,73.10
2022-08-18T20:28:00.558Z,72.70
2022-08-18T20:30:51.024Z,72.70
2022-08-18T20:33:17.940Z,73.70
2022-08-18T20:35:52.998Z,72.70
2022-08-18T20:38:38.670Z,73.00
2022-08-18T20:41:23.588Z,72.90
2022-08-18T20:44:36.520Z,73.00
2022-08-18T20:47:18.364Z,73.40
2022-08-18T20:49:58.337Z,73.20
2022-08-18T20:52:58.109Z,73.50
2022-08-18T20:55:34.828Z,73.80
2022-08-18T20:58:18.420Z,73.70
2022-08-18T21:00:55.081Z,73.90
2022-08-18T21:03:22.624Z,73.60
2022-08-18T21:05:57.192Z,73.60
2022-08-18T21:08:29.215Z,73.60
2022-08-18T21:11:04.795Z,73.80
2022-08-18T21:13:38.489Z,73.70
2022-08-18T21:16:05.467Z,73.70
2022-08-18T21:18:35.048Z,73.50
2022-08-18T21:21:19.199Z,73.80
2022-08-18T21:23:57.356Z,74.10
2022-08-18T21:26:26.771Z,74.00
2022-08-18T21:29:11.007Z,74.50
2022-08-18T21:31:46.036Z,74.70
2022-08-18T21:34:18.608Z,74.40
2022-08-18T21:36:54.323Z,74.10
2022-08-18T21:39:22.283Z,74.90
2022-08-18T21:41:55.706Z,74.30
2022-08-18T21:44:33.833Z,74.30
2022-08-18T21:47:16.970Z,74.40
2022-08-18T21:50:08.433Z,74.90
2022-08-18T21:52:38.594Z,76.30
2022-08-18T21:55:39.103Z,76.30
2022-08-18T21:58:13.968Z,76.90
2022-08-18T22:00:47.258Z,76.90
2022-08-18T22:03:24.871Z,76.90
2022-08-18T22:05:58.647Z,76.50
2022-08-18T22:08:28.518Z,76.30
2022-08-18T22:11:51.924Z,75.90
2022-08-18T22:14:26.941Z,76.50
2022-08-18T22:17:28.555Z,76.60
2022-08-18T22:20:15.892Z,77.20
2022-08-18T22:23:01.588Z,76.80
2022-08-18T22:25:28.457Z,76.50
2022-08-18T22:27:59.164Z,76.60
2022-08-18T22:30:26.053Z,76.90
2022-08-18T22:32:53.458Z,76.50
2022-08-18T22:35:20.489Z,76.60
2022-08-18T22:37:50.712Z,76.50
2022-08-18T22:40:21.707Z,76.40
2022-08-18T22:42:49.476Z,76.40
2022-08-18T22:45:16.558Z,77.00
2022-08-18T22:47:44.938Z,76.70
2022-08-18T22:50:13.779Z,76.90
2022-08-18T22:52:44.036Z,76.80
2022-08-18T22:55:14.754Z,77.00
2022-08-18T22:57:44.888Z,76.70
2022-08-18T23:00:17.500Z,76.70
2022-08-18T23:02:47.842Z,76.60
2022-08-18T23:05:15.068Z,76.60
2022-08-18T23:07:42.629Z,76.60
2022-08-18T23:10:13.589Z,77.20
2022-08-18T23:12:46.764Z,77.40
2022-08-18T23:15:16.959Z,78.00
2022-08-18T23:17:44.172Z,78.20
2022-08-18T23:20:17.976Z,78.50
2022-08-18T23:22:47.669Z,78.60
2022-08-18T23:25:14.798Z,78.90
2022-08-18T23:27:42.798Z,79.10
2022-08-18T23:30:10.712Z,79.20
2022-08-18T23:32:37.544Z,79.40
2022-08-18T23:35:05.003Z,79.50
2022-08-18T23:37:31.995Z,79.30
2022-08-18T23:39:59.357Z,79.10
2022-08-18T23:42:26.408Z,79.50
2022-08-18T23:44:53.543Z,79.30
2022-08-18T23:47:20.659Z,79.50
2022-08-18T23:49:47.842Z,79.80
2022-08-18T23:52:14.911Z,79.60
2022-08-18T23:54:42.050Z,79.80
2022-08-18T23:57:08.926Z,79.60
2022-08-18T23:59:36.514Z,79.90
